Time;durP1;ratioP1;P1;durP2;ratioP2;P2;SDS_P1;SDS_P2;PMS_P1;PMS_P2;Temp;Humidity;BMP_temperature;BMP_pressure;BME280_temperature;BME280_humidity;BME280_pressure;Samples;Min_cycle;Max_cycle;Signal;HPM_P1;HPM_P2
2022/12/05 00:01:21;;;;;;;31.93;19.60;;;1.60;99.90;;;;;;5046103;28;20198;-77
2022/12/05 00:03:49;;;;;;;32.00;20.53;;;1.60;99.90;;;;;;5046918;28;20205;-78
2022/12/05 00:06:15;;;;;;;34.13;20.67;;;1.70;99.90;;;;;;5044826;28;20964;-76
2022/12/05 00:08:41;;;;;;;33.50;19.93;;;1.70;28.50;;;;;;5044254;28;20197;-77
2022/12/05 00:11:15;;;;;;;31.80;19.77;;;1.70;14.80;;;;;;5044490;28;20248;-78
2022/12/05 00:13:42;;;;;;;31.63;20.50;;;1.70;1.00;;;;;;5047405;28;20209;-77
2022/12/05 00:16:13;;;;;;;30.27;18.53;;;1.70;99.90;;;;;;5047977;28;20508;-76
2022/12/05 00:18:39;;;;;;;33.97;20.60;;;1.70;99.90;;;;;;5047418;28;20227;-78
2022/12/05 00:21:06;;;;;;;32.40;19.80;;;1.70;25.90;;;;;;5046244;28;20205;-79
2022/12/05 00:23:32;;;;;;;33.47;19.03;;;1.60;91.90;;;;;;5043942;28;20257;-78
2022/12/05 00:26:03;;;;;;;29.57;18.37;;;1.60;99.90;;;;;;5044739;28;20248;-78
2022/12/05 00:28:33;;;;;;;31.00;19.03;;;1.50;99.90;;;;;;5043969;28;20194;-78
2022/12/05 00:31:10;;;;;;;31.80;19.67;;;1.50;99.90;;;;;;5046479;28;20206;-79
2022/12/05 00:33:36;;;;;;;33.07;19.90;;;1.50;99.90;;;;;;5050868;28;20221;-77
2022/12/05 00:36:05;;;;;;;33.20;19.63;;;1.60;99.90;;;;;;5048382;28;20189;-78
2022/12/05 00:38:31;;;;;;;31.13;19.53;;;1.70;99.90;;;;;;5048287;28;20248;-77
2022/12/05 00:41:02;;;;;;;31.83;19.97;;;1.70;99.90;;;;;;5049941;28;21177;-77
2022/12/05 00:43:27;;;;;;;31.73;19.90;;;2.20;99.90;;;;;;5049945;28;21072;-77
2022/12/05 00:45:53;;;;;;;32.47;20.07;;;1.70;99.90;;;;;;5050815;28;20182;-78
2022/12/05 00:48:19;;;;;;;32.87;19.67;;;1.60;99.90;;;;;;5048994;28;20235;-78
2022/12/05 00:50:44;;;;;;;35.23;19.90;;;1.60;99.90;;;;;;5049783;28;20206;-79
2022/12/05 00:53:10;;;;;;;31.70;19.50;;;1.60;99.90;;;;;;5049359;28;20521;-78
2022/12/05 00:55:36;;;;;;;31.50;19.63;;;1.60;99.90;;;;;;5048425;28;20190;-78
2022/12/05 00:58:02;;;;;;;29.70;19.30;;;1.70;1.00;;;;;;5051334;28;20656;-78
2022/12/05 01:00:27;;;;;;;34.00;20.43;;;1.60;1.00;;;;;;5050845;28;20185;-79
2022/12/05 01:02:54;;;;;;;34.87;20.50;;;1.60;1.00;;;;;;5050435;28;20182;-77
2022/12/05 01:05:20;;;;;;;29.10;18.63;;;1.60;1.00;;;;;;5051727;28;20253;-79
2022/12/05 01:07:45;;;;;;;31.60;19.30;;;1.50;1.00;;;;;;5051435;28;20265;-78
2022/12/05 01:10:11;;;;;;;32.37;20.00;;;1.60;1.00;;;;;;5051602;28;20190;-77
2022/12/05 01:12:37;;;;;;;30.17;18.80;;;1.50;1.00;;;;;;5052468;28;20651;-78
2022/12/05 01:15:03;;;;;;;35.60;19.73;;;1.60;1.00;;;;;;5049842;28;20313;-78
2022/12/05 01:17:28;;;;;;;30.83;18.90;;;1.60;1.00;;;;;;5048881;28;20585;-77
2022/12/05 01:19:54;;;;;;;29.90;18.80;;;1.60;60.60;;;;;;5050386;28;20300;-77
2022/12/05 01:22:19;;;;;;;30.23;18.40;;;1.60;99.90;;;;;;5049307;28;20186;-78
2022/12/05 01:24:45;;;;;;;33.03;20.60;;;1.60;99.90;;;;;;5052105;28;20332;-78
2022/12/05 01:27:11;;;;;;;33.83;19.87;;;1.60;99.90;;;;;;5050927;28;20213;-78
2022/12/05 01:29:36;;;;;;;32.13;18.90;;;2.60;99.90;;;;;;5050208;28;20205;-78
2022/12/05 01:32:02;;;;;;;32.17;19.50;;;3.40;1.00;;;;;;5051265;28;20244;-77
2022/12/05 01:34:28;;;;;;;32.77;19.90;;;1.70;99.90;;;;;;5050860;28;20206;-77
2022/12/05 01:36:53;;;;;;;32.60;18.80;;;2.90;99.90;;;;;;5050303;28;20190;-79
2022/12/05 01:39:19;;;;;;;31.13;18.63;;;1.60;99.90;;;;;;5051298;28;20678;-79
2022/12/05 01:41:48;;;;;;;35.20;19.70;;;2.50;99.90;;;;;;5050881;28;20220;-79
2022/12/05 01:44:13;;;;;;;32.20;19.13;;;2.90;1.00;;;;;;5047794;28;20320;-78
2022/12/05 01:46:45;;;;;;;32.43;19.10;;;3.10;1.00;;;;;;5050154;28;20270;-77
2022/12/05 01:49:15;;;;;;;30.33;18.80;;;2.70;1.00;;;;;;5051240;28;20182;-78
2022/12/05 01:51:43;;;;;;;31.30;19.07;;;1.60;1.00;;;;;;5049201;28;20214;-78
2022/12/05 01:54:10;;;;;;;34.73;18.90;;;1.60;1.00;;;;;;5050625;28;20253;-78
2022/12/05 01:56:38;;;;;;;33.57;19.17;;;1.60;1.00;;;;;;5050087;28;20269;-78
2022/12/05 01:59:07;;;;;;;29.63;18.50;;;1.60;1.00;;;;;;5050286;28;20201;-78
2022/12/05 02:01:33;;;;;;;32.07;18.77;;;1.60;1.00;;;;;;5050148;28;20197;-76
2022/12/05 02:03:59;;;;;;;31.13;19.80;;;1.60;42.90;;;;;;5050847;28;20217;-77
2022/12/05 02:06:26;;;;;;;27.93;18.20;;;1.70;99.90;;;;;;5049129;28;20273;-79
2022/12/05 02:08:52;;;;;;;29.77;18.70;;;1.70;99.90;;;;;;5050565;28;20190;-78
2022/12/05 02:11:19;;;;;;;29.07;18.07;;;1.70;99.90;;;;;;5047777;28;20221;-79
2022/12/05 02:13:57;;;;;;;29.30;18.17;;;1.60;99.90;;;;;;5047581;28;20317;-79
2022/12/05 02:16:47;;;;;;;27.33;17.97;;;1.60;99.90;;;;;;5047641;28;20235;-77
2022/12/05 02:19:13;;;;;;;27.30;16.77;;;1.70;99.90;;;;;;5042802;28;20197;-79
2022/12/05 02:22:03;;;;;;;26.87;16.30;;;1.70;99.90;;;;;;5046964;28;20190;-77
2022/12/05 02:24:41;;;;;;;28.47;17.27;;;1.60;99.90;;;;;;5047186;28;20672;-77
2022/12/05 02:27:24;;;;;;;27.90;16.87;;;1.60;99.90;;;;;;5047596;28;20182;-79
2022/12/05 02:30:11;;;;;;;28.13;16.63;;;1.70;99.90;;;;;;5046147;28;20190;-79
2022/12/05 02:32:42;;;;;;;24.87;15.87;;;1.70;99.90;;;;;;5049290;28;20667;-78
2022/12/05 02:35:14;;;;;;;28.27;17.00;;;1.70;99.90;;;;;;5051890;28;20194;-79
2022/12/05 02:37:53;;;;;;;23.13;14.60;;;1.70;99.90;;;;;;5050998;28;20192;-77
2022/12/05 02:40:25;;;;;;;25.63;16.50;;;1.60;99.90;;;;;;5052614;28;20188;-79
2022/12/05 02:42:59;;;;;;;26.33;15.37;;;1.60;99.90;;;;;;5052245;28;20190;-79
2022/12/05 02:45:27;;;;;;;22.30;15.23;;;1.60;99.90;;;;;;5050335;28;20186;-79
2022/12/05 02:47:54;;;;;;;27.23;16.50;;;1.60;99.90;;;;;;5052026;28;20281;-79
2022/12/05 02:50:27;;;;;;;26.77;15.60;;;1.60;99.90;;;;;;5052527;28;20190;-79
2022/12/05 02:52:57;;;;;;;24.23;15.67;;;1.60;99.90;;;;;;5051788;28;20204;-79
2022/12/05 02:55:23;;;;;;;25.13;15.60;;;1.60;1.00;;;;;;5052184;28;20265;-77
2022/12/05 02:57:53;;;;;;;22.83;14.40;;;1.70;1.00;;;;;;5052905;28;20611;-78
2022/12/05 03:00:19;;;;;;;24.00;14.30;;;1.70;1.00;;;;;;5052909;28;20182;-78
2022/12/05 03:02:45;;;;;;;20.43;13.57;;;1.60;1.00;;;;;;5052976;28;20248;-79
2022/12/05 03:05:21;;;;;;;17.63;13.03;;;1.80;1.00;;;;;;5050770;28;20202;-79
2022/12/05 03:07:50;;;;;;;18.80;13.13;;;1.80;1.00;;;;;;5049227;28;20185;-79
2022/12/05 03:10:19;;;;;;;18.60;13.17;;;1.90;99.90;;;;;;5052621;28;20224;-79
2022/12/05 03:12:53;;;;;;;16.93;12.10;;;1.80;99.90;;;;;;5052562;28;20210;-79
2022/12/05 03:15:24;;;;;;;18.43;12.03;;;1.80;1.00;;;;;;5052720;28;20301;-79
2022/12/05 03:18:05;;;;;;;15.87;11.90;;;1.90;1.00;;;;;;5052942;28;21068;-79
2022/12/05 03:20:42;;;;;;;19.53;11.90;;;1.90;1.00;;;;;;5050833;28;20242;-80
2022/12/05 03:23:13;;;;;;;15.43;10.93;;;1.80;99.90;;;;;;5052039;28;20648;-80
2022/12/05 03:25:59;;;;;;;18.30;12.17;;;1.70;99.90;;;;;;5051610;28;20201;-79
2022/12/05 03:28:55;;;;;;;14.70;10.60;;;1.70;99.90;;;;;;5050611;28;20190;-79
2022/12/05 03:31:32;;;;;;;16.87;10.90;;;1.60;1.00;;;;;;5051615;28;20237;-79
2022/12/05 03:33:59;;;;;;;16.67;11.43;;;1.60;1.00;;;;;;5051801;28;20225;-78
2022/12/05 03:36:38;;;;;;;17.37;11.53;;;1.60;1.00;;;;;;5049677;28;20473;-79
2022/12/05 03:39:36;;;;;;;17.27;11.37;;;1.60;1.00;;;;;;5051263;28;20190;-79
2022/12/05 03:42:11;;;;;;;18.83;11.83;;;1.60;99.90;;;;;;5047970;28;20283;-80
2022/12/05 03:44:56;;;;;;;16.07;10.33;;;1.60;99.90;;;;;;5050979;28;20232;-78
2022/12/05 03:47:49;;;;;;;18.07;11.63;;;1.70;99.90;;;;;;5049798;28;20189;-79
2022/12/05 03:50:25;;;;;;;15.43;11.03;;;1.70;99.90;;;;;;5043983;28;20240;-78
2022/12/05 03:53:00;;;;;;;16.53;10.67;;;1.70;99.90;;;;;;5049280;28;20228;-79
2022/12/05 03:55:30;;;;;;;16.90;11.40;;;1.60;99.90;;;;;;5048990;28;20189;-79
2022/12/05 03:58:16;;;;;;;17.00;11.63;;;1.60;99.90;;;;;;5049119;28;20189;-80
2022/12/05 04:00:45;;;;;;;19.23;12.27;;;1.60;99.90;;;;;;5050932;28;21055;-80
2022/12/05 04:03:18;;;;;;;19.17;12.07;;;1.70;99.90;;;;;;5049857;28;20178;-79
2022/12/05 04:05:51;;;;;;;18.00;11.73;;;1.70;1.00;;;;;;5049351;28;20186;-79
2022/12/05 04:08:22;;;;;;;17.10;11.47;;;1.60;1.00;;;;;;5046121;28;20193;-79
2022/12/05 04:10:52;;;;;;;17.83;11.60;;;1.60;1.00;;;;;;5043963;28;20178;-78
2022/12/05 04:13:29;;;;;;;14.70;10.33;;;1.50;1.00;;;;;;5045521;28;20629;-78
2022/12/05 04:18:55;;;;;;;17.40;11.43;;;1.40;1.00;;;;;;5046619;28;20273;-78
2022/12/05 04:21:39;;;;;;;17.27;11.37;;;1.40;1.00;;;;;;5046390;28;20268;-79
2022/12/05 04:27:43;;;;;;;15.70;10.20;;;1.30;1.00;;;;;;5049815;28;20374;-79
2022/12/05 04:30:12;;;;;;;15.47;11.03;;;1.30;1.00;;;;;;5048997;28;20219;-79
2022/12/05 04:32:53;;;;;;;15.93;10.93;;;1.40;99.90;;;;;;5050843;28;20225;-80
2022/12/05 04:35:25;;;;;;;16.80;11.07;;;1.40;1.00;;;;;;5052161;28;20297;-81
2022/12/05 04:37:57;;;;;;;17.00;10.97;;;1.30;1.00;;;;;;5053291;28;20190;-79
2022/12/05 04:40:38;;;;;;;16.33;11.10;;;1.20;1.00;;;;;;5051623;28;20187;-78
2022/12/05 04:43:05;;;;;;;13.73;10.73;;;1.20;1.00;;;;;;5068537;28;20220;-80
2022/12/05 04:45:34;;;;;;;16.10;11.03;;;1.10;1.00;;;;;;5053203;28;20182;-80
2022/12/05 04:48:06;;;;;;;15.73;10.80;;;1.10;1.00;;;;;;5051650;28;20178;-78
2022/12/05 04:50:33;;;;;;;14.80;10.40;;;1.10;1.00;;;;;;5053163;28;20194;-78
2022/12/05 04:53:01;;;;;;;18.40;11.17;;;1.00;1.00;;;;;;5051555;28;20220;-79
2022/12/05 04:55:31;;;;;;;14.30;10.70;;;1.00;1.00;;;;;;5051511;28;20220;-81
2022/12/05 04:58:06;;;;;;;15.43;10.87;;;1.00;1.00;;;;;;5049774;28;20182;-82
2022/12/05 05:00:38;;;;;;;16.57;11.10;;;0.90;1.00;;;;;;5050646;28;20209;-80
2022/12/05 05:03:17;;;;;;;17.77;11.43;;;0.90;99.90;;;;;;5051285;28;20180;-78
2022/12/05 05:05:47;;;;;;;15.13;10.53;;;0.90;1.00;;;;;;5051203;28;20481;-79
2022/12/05 05:08:18;;;;;;;14.07;10.07;;;0.90;1.00;;;;;;5051301;28;20178;-81
2022/12/05 05:11:00;;;;;;;15.33;10.13;;;0.80;1.00;;;;;;5051082;28;20197;-80
2022/12/05 05:13:26;;;;;;;15.87;10.50;;;0.80;1.00;;;;;;5050654;28;20206;-78
2022/12/05 05:15:52;;;;;;;16.33;10.40;;;0.70;1.00;;;;;;5050938;28;20189;-79
2022/12/05 05:18:17;;;;;;;16.50;10.93;;;0.80;1.00;;;;;;5048887;28;20713;-80
2022/12/05 05:20:43;;;;;;;17.13;10.70;;;0.80;1.00;;;;;;5050605;28;20178;-78
2022/12/05 05:23:08;;;;;;;18.67;12.10;;;0.80;1.00;;;;;;5050195;28;20186;-79
2022/12/05 05:25:34;;;;;;;16.53;11.03;;;0.80;1.00;;;;;;5049795;28;20178;-79
2022/12/05 05:28:00;;;;;;;16.27;10.63;;;0.80;1.00;;;;;;5050215;28;20186;-78
2022/12/05 05:30:25;;;;;;;16.47;10.90;;;0.80;1.00;;;;;;5050266;28;20245;-79
2022/12/05 05:32:51;;;;;;;17.33;11.27;;;0.80;1.00;;;;;;5050038;28;20206;-79
2022/12/05 05:35:17;;;;;;;17.63;11.03;;;0.80;1.00;;;;;;5048829;28;20238;-79
2022/12/05 05:37:43;;;;;;;17.37;11.03;;;0.80;1.00;;;;;;5050335;28;20181;-78
2022/12/05 05:40:11;;;;;;;16.53;10.97;;;0.80;1.00;;;;;;5049101;28;20175;-78
2022/12/05 05:42:45;;;;;;;16.30;10.80;;;0.90;1.00;;;;;;5016564;22;20236;-77
2022/12/05 05:45:12;;;;;;;13.40;9.93;;;0.90;1.00;;;;;;4970914;28;20212;-78
2022/12/05 05:47:38;;;;;;;15.90;10.93;;;0.90;1.00;;;;;;4969091;28;20185;-77
2022/12/05 05:50:04;;;;;;;14.63;10.07;;;0.80;99.90;;;;;;4984722;28;20239;-77
2022/12/05 05:52:35;;;;;;;16.03;11.07;;;0.90;1.00;;;;;;4969879;28;20804;-78
2022/12/05 05:55:02;;;;;;;16.50;10.80;;;0.90;99.90;;;;;;4969663;28;20208;-78
2022/12/05 05:57:29;;;;;;;20.30;12.07;;;0.80;99.90;;;;;;4970025;28;20200;-78
2022/12/05 05:59:55;;;;;;;17.57;11.77;;;0.80;99.90;;;;;;4984016;28;20195;-77
2022/12/05 06:02:21;;;;;;;15.57;11.00;;;0.80;99.90;;;;;;4966944;28;20189;-78
2022/12/05 06:04:46;;;;;;;14.97;10.50;;;0.80;99.90;;;;;;4970555;28;20580;-78
2022/12/05 06:07:12;;;;;;;16.17;11.23;;;0.80;99.90;;;;;;4971037;28;20663;-78
2022/12/05 06:09:38;;;;;;;16.33;11.07;;;0.90;99.90;;;;;;4971528;28;20181;-78
2022/12/05 06:12:03;;;;;;;13.47;10.10;;;0.80;99.90;;;;;;4971362;28;20235;-78
2022/12/05 06:14:29;;;;;;;13.77;9.47;;;0.80;99.90;;;;;;4970525;28;20216;-79
2022/12/05 06:16:55;;;;;;;16.77;10.93;;;0.90;99.90;;;;;;4969966;28;20197;-78
2022/12/05 06:19:20;;;;;;;14.10;11.33;;;0.80;99.90;;;;;;4971765;28;20185;-78
2022/12/05 06:21:49;;;;;;;13.63;10.40;;;0.80;99.90;;;;;;4969180;28;20553;-78
2022/12/05 06:24:15;;;;;;;15.07;10.57;;;0.80;99.90;;;;;;4969602;28;20201;-78
2022/12/05 06:26:40;;;;;;;13.93;10.33;;;0.80;99.90;;;;;;4968985;28;20256;-78
2022/12/05 06:29:06;;;;;;;13.43;9.87;;;0.80;99.90;;;;;;4968405;28;21414;-78
2022/12/05 06:31:32;;;;;;;13.83;10.00;;;0.80;99.90;;;;;;4967745;28;20231;-78
2022/12/05 06:34:02;;;;;;;12.47;9.43;;;0.70;1.00;;;;;;4967532;28;20228;-77
2022/12/05 06:36:29;;;;;;;12.00;9.30;;;0.70;1.00;;;;;;4965375;28;20185;-77
2022/12/05 06:38:59;;;;;;;10.83;8.57;;;0.70;1.00;;;;;;4965950;28;20195;-76
2022/12/05 06:41:26;;;;;;;12.77;9.90;;;0.70;1.00;;;;;;4966756;28;20197;-75
2022/12/05 06:43:53;;;;;;;12.47;9.23;;;0.70;1.00;;;;;;4967883;28;20209;-77
2022/12/05 06:46:20;;;;;;;10.53;8.27;;;0.70;1.00;;;;;;4966685;28;20707;-77
2022/12/05 06:48:46;;;;;;;10.90;8.97;;;0.70;1.00;;;;;;4967434;28;20279;-80
2022/12/05 06:51:16;;;;;;;10.53;8.50;;;-0.40;1.00;;;;;;4966585;28;20240;-77
2022/12/05 06:53:42;;;;;;;10.13;8.33;;;0.90;1.00;;;;;;4966180;28;20205;-77
2022/12/05 06:56:14;;;;;;;8.60;7.63;;;0.90;1.00;;;;;;4964962;28;20191;-77
2022/12/05 06:58:44;;;;;;;8.30;7.27;;;1.00;99.90;;;;;;4965904;28;20185;-77
2022/12/05 07:04:05;;;;;;;8.17;6.90;;;1.00;1.00;;;;;;4968296;28;20227;-77
2022/12/05 07:06:32;;;;;;;7.57;6.77;;;1.00;1.00;;;;;;4970013;28;20659;-77
2022/12/05 07:08:57;;;;;;;9.90;8.90;;;1.00;99.90;;;;;;4967553;28;20201;-77
2022/12/05 07:11:23;;;;;;;8.37;6.57;;;0.80;99.90;;;;;;4967527;28;20209;-77
2022/12/05 07:13:49;;;;;;;7.33;6.50;;;0.80;1.00;;;;;;4969367;28;20215;-77
2022/12/05 07:16:15;;;;;;;7.97;6.77;;;0.80;1.00;;;;;;4966011;28;20185;-76
2022/12/05 07:18:40;;;;;;;7.53;6.50;;;0.80;1.00;;;;;;4963955;28;20243;-77
2022/12/05 07:21:09;;;;;;;9.30;7.07;;;0.70;1.00;;;;;;4963615;28;20188;-77
2022/12/05 07:23:35;;;;;;;14.07;9.70;;;0.70;1.00;;;;;;4964654;28;20200;-77
2022/12/05 07:26:07;;;;;;;15.43;10.03;;;0.70;99.90;;;;;;4964561;28;20199;-77
2022/12/05 07:28:33;;;;;;;18.27;11.50;;;0.80;99.90;;;;;;4962967;28;20196;-76
2022/12/05 07:31:07;;;;;;;16.00;10.30;;;0.70;99.90;;;;;;4963102;28;20193;-76
2022/12/05 07:33:32;;;;;;;28.53;15.73;;;0.70;99.90;;;;;;4963012;28;20616;-76
2022/12/05 07:36:04;;;;;;;34.13;17.77;;;0.70;1.00;;;;;;4962160;28;20296;-76
2022/12/05 07:38:29;;;;;;;24.13;14.10;;;0.70;1.00;;;;;;4963300;28;20203;-76
2022/12/05 07:40:55;;;;;;;10.30;7.83;;;0.70;1.00;;;;;;4963343;28;20189;-76
2022/12/05 07:43:21;;;;;;;8.50;6.97;;;0.70;1.00;;;;;;4962114;28;20216;-76
2022/12/05 07:45:47;;;;;;;19.13;8.80;;;0.80;1.00;;;;;;4962426;28;20212;-77
2022/12/05 07:48:12;;;;;;;12.87;9.17;;;0.80;1.00;;;;;;4962817;28;20640;-77
2022/12/05 07:50:38;;;;;;;11.07;8.13;;;0.80;1.00;;;;;;4962237;28;20693;-77
2022/12/05 07:53:04;;;;;;;13.20;9.30;;;0.80;1.00;;;;;;4961237;28;20766;-77
2022/12/05 07:55:29;;;;;;;28.53;17.83;;;0.80;1.00;;;;;;4960257;28;20181;-78
2022/12/05 07:57:55;;;;;;;26.23;16.27;;;0.80;1.00;;;;;;4962946;28;20185;-77
2022/12/05 08:00:21;;;;;;;26.57;17.33;;;0.80;1.00;;;;;;4960616;28;20188;-76
2022/12/05 08:02:47;;;;;;;23.67;16.53;;;0.80;92.00;;;;;;4960522;28;20203;-76
2022/12/05 08:05:13;;;;;;;25.17;17.37;;;0.80;99.90;;;;;;4972743;28;20211;-73
2022/12/05 08:07:38;;;;;;;23.10;16.30;;;0.80;99.90;;;;;;4976573;28;20734;-76
2022/12/05 08:10:05;;;;;;;22.37;15.03;;;0.80;99.90;;;;;;4966341;28;20216;-76
2022/12/05 08:12:30;;;;;;;21.73;15.57;;;0.80;99.90;;;;;;4970148;28;20300;-77
2022/12/05 08:14:56;;;;;;;20.77;13.30;;;0.80;99.90;;;;;;4971858;28;20287;-73
2022/12/05 08:17:22;;;;;;;17.47;12.27;;;0.80;99.90;;;;;;4968398;28;20185;-74
2022/12/05 08:19:47;;;;;;;18.90;13.23;;;0.80;99.90;;;;;;4976618;28;20187;-77
2022/12/05 08:22:13;;;;;;;17.83;12.40;;;0.80;99.90;;;;;;4974271;28;20773;-77
2022/12/05 08:24:39;;;;;;;27.10;13.00;;;0.90;99.90;;;;;;4965346;28;20274;-72
2022/12/05 08:27:05;;;;;;;17.30;12.13;;;0.90;99.90;;;;;;4974139;28;20223;-76
2022/12/05 08:29:31;;;;;;;10.73;8.10;;;1.00;99.90;;;;;;4966491;28;20197;-77
2022/12/05 08:31:57;;;;;;;24.63;17.23;;;1.10;99.90;;;;;;4968277;28;20216;-77
2022/12/05 08:34:23;;;;;;;21.70;16.37;;;1.10;99.90;;;;;;4969102;28;20204;-75
2022/12/05 08:36:49;;;;;;;18.53;13.87;;;1.00;99.90;;;;;;4968406;28;20288;-75
2022/12/05 08:39:18;;;;;;;13.60;9.90;;;1.00;44.80;;;;;;4970497;28;20199;-75
2022/12/05 08:41:45;;;;;;;12.17;9.43;;;1.00;23.50;;;;;;4968558;28;20932;-76
2022/12/05 08:44:15;;;;;;;10.23;8.20;;;1.00;44.20;;;;;;4971887;28;20219;-74
2022/12/05 08:46:42;;;;;;;8.83;7.53;;;1.10;1.00;;;;;;4962094;28;20196;-76
2022/12/05 08:49:09;;;;;;;7.97;6.77;;;1.10;1.00;;;;;;4964594;28;20189;-76
2022/12/05 08:51:34;;;;;;;8.57;7.20;;;1.10;1.00;;;;;;4964134;28;20212;-74
2022/12/05 08:54:04;;;;;;;8.43;6.13;;;1.10;1.00;;;;;;4962568;28;20197;-75
2022/12/05 08:56:31;;;;;;;7.30;6.03;;;1.10;1.00;;;;;;4968173;28;20264;-77
2022/12/05 08:58:58;;;;;;;6.30;5.70;;;1.10;1.00;;;;;;4966310;28;20246;-77
2022/12/05 09:01:29;;;;;;;8.20;7.27;;;1.10;1.00;;;;;;4967824;28;20291;-76
2022/12/05 09:03:55;;;;;;;9.77;8.23;;;1.20;1.00;;;;;;4967792;28;20201;-74
2022/12/05 09:06:23;;;;;;;7.70;6.97;;;1.20;1.00;;;;;;4969637;28;20192;-76
2022/12/05 09:08:53;;;;;;;8.63;7.73;;;1.20;99.90;;;;;;4967714;28;20249;-76
2022/12/05 09:11:24;;;;;;;8.23;6.30;;;1.20;99.90;;;;;;4967071;28;20212;-74
2022/12/05 09:13:52;;;;;;;7.97;6.10;;;2.20;1.00;;;;;;4969167;28;20240;-78
2022/12/05 09:16:21;;;;;;;6.73;6.03;;;1.30;99.90;;;;;;4987420;28;20200;-75
2022/12/05 09:18:48;;;;;;;8.60;5.50;;;2.40;1.00;;;;;;4975621;28;20312;-75
2022/12/05 09:21:20;;;;;;;5.40;4.40;;;2.60;99.90;;;;;;4977786;28;20417;-75
2022/12/05 09:23:46;;;;;;;6.00;4.87;;;1.30;99.90;;;;;;4991778;28;20213;-76
2022/12/05 09:26:15;;;;;;;7.90;6.73;;;1.40;99.90;;;;;;4981983;28;20200;-77
2022/12/05 09:28:41;;;;;;;6.70;6.00;;;2.90;99.90;;;;;;4975140;28;20217;-75
2022/12/05 09:31:11;;;;;;;7.50;6.13;;;1.20;99.90;;;;;;4970758;28;20693;-77
2022/12/05 09:33:37;;;;;;;8.00;6.00;;;1.20;99.90;;;;;;4963923;28;20775;-77
2022/12/05 09:36:10;;;;;;;6.03;4.90;;;1.90;1.00;;;;;;4964853;28;20202;-77
2022/12/05 09:38:36;;;;;;;6.03;5.37;;;1.30;1.00;;;;;;4963226;28;20197;-77
2022/12/05 09:41:06;;;;;;;6.20;5.60;;;1.30;1.00;;;;;;4962763;28;20196;-77
2022/12/05 09:43:51;;;;;;;6.37;5.73;;;1.40;1.00;;;;;;4963473;28;20925;-79
2022/12/05 09:46:52;;;;;;;9.00;7.27;;;1.30;1.00;;;;;;4962732;28;20181;-77
2022/12/05 09:49:18;;;;;;;10.37;7.83;;;1.40;1.00;;;;;;4965275;28;20785;-78
2022/12/05 09:51:46;;;;;;;8.33;7.43;;;1.30;99.90;;;;;;4962449;28;20247;-78
2022/12/05 09:54:13;;;;;;;8.30;6.67;;;1.30;1.00;;;;;;4963657;28;20197;-77
2022/12/05 09:56:42;;;;;;;6.40;5.80;;;1.40;1.00;;;;;;4963229;28;20231;-77
2022/12/05 09:59:12;;;;;;;6.53;5.33;;;1.40;1.00;;;;;;4961507;28;20263;-77
2022/12/05 10:01:50;;;;;;;5.30;4.80;;;1.50;99.90;;;;;;4959394;28;20208;-78
2022/12/05 10:04:27;;;;;;;5.30;4.90;;;1.60;99.90;;;;;;4961464;28;20657;-76
2022/12/05 10:07:09;;;;;;;5.83;5.23;;;1.70;1.00;;;;;;4952461;28;20185;-77
2022/12/05 10:09:51;;;;;;;6.10;5.40;;;1.60;1.00;;;;;;4961710;28;20542;-77
2022/12/05 10:12:50;;;;;;;5.37;4.87;;;1.60;1.00;;;;;;4962689;28;20205;-77
2022/12/05 10:15:53;;;;;;;6.63;6.03;;;1.60;1.00;;;;;;4963437;28;20267;-77
2022/12/05 10:18:45;;;;;;;7.50;6.80;;;1.60;1.00;;;;;;4961997;28;20208;-76
2022/12/05 10:21:57;;;;;;;11.57;8.43;;;1.50;1.00;;;;;;4962028;28;20193;-77
2022/12/05 10:24:31;;;;;;;10.30;9.07;;;1.50;1.00;;;;;;4963239;28;20221;-77
2022/12/05 10:27:01;;;;;;;9.17;7.77;;;1.50;1.00;;;;;;4963405;28;20248;-77
2022/12/05 10:29:41;;;;;;;7.73;6.33;;;1.50;1.00;;;;;;4962633;28;20200;-76
2022/12/05 10:32:15;;;;;;;7.33;6.33;;;1.50;1.00;;;;;;4961670;28;20212;-76
2022/12/05 10:34:44;;;;;;;6.87;6.17;;;2.20;1.00;;;;;;4961425;28;20208;-77
2022/12/05 10:37:22;;;;;;;8.27;6.10;;;1.50;1.00;;;;;;4964618;28;20205;-77
2022/12/05 10:39:49;;;;;;;6.97;6.27;;;1.60;1.00;;;;;;4963545;28;20196;-77
2022/12/05 10:42:35;;;;;;;8.63;7.60;;;1.60;1.00;;;;;;4963527;28;20209;-77
2022/12/05 10:45:14;;;;;;;9.33;8.03;;;1.60;1.00;;;;;;4963435;28;20235;-77
2022/12/05 10:47:40;;;;;;;8.47;7.63;;;1.70;1.00;;;;;;4971666;28;20203;-77
2022/12/05 10:50:21;;;;;;;13.03;10.50;;;1.70;1.00;;;;;;4964310;28;20579;-77
2022/12/05 10:52:47;;;;;;;16.77;11.77;;;1.80;1.00;;;;;;4962234;28;20224;-77
2022/12/05 10:55:16;;;;;;;12.23;10.93;;;1.70;1.00;;;;;;4960292;28;20212;-78
2022/12/05 10:57:45;;;;;;;10.53;8.53;;;1.80;1.00;;;;;;4964835;28;20197;-77
2022/12/05 11:00:14;;;;;;;8.03;7.23;;;1.70;1.00;;;;;;4979903;28;20497;-77
2022/12/05 11:02:41;;;;;;;8.10;7.30;;;1.80;1.00;;;;;;4964192;28;20621;-77
2022/12/05 11:05:07;;;;;;;8.20;7.40;;;1.80;1.00;;;;;;4965169;28;20229;-77
2022/12/05 11:07:44;;;;;;;8.00;7.20;;;1.80;1.00;;;;;;4964774;28;20189;-77
2022/12/05 11:10:49;;;;;;;10.70;9.40;;;1.90;1.00;;;;;;4967053;28;20741;-77
2022/12/05 11:13:24;;;;;;;10.10;9.07;;;1.80;1.00;;;;;;4971556;28;20229;-77
2022/12/05 11:15:50;;;;;;;9.93;8.93;;;1.90;1.00;;;;;;4965979;28;20200;-77
2022/12/05 11:18:35;;;;;;;8.63;7.77;;;1.90;1.00;;;;;;4975266;28;20933;-77
2022/12/05 11:21:13;;;;;;;8.60;7.10;;;2.00;1.00;;;;;;4962327;28;20180;-77
2022/12/05 11:23:39;;;;;;;9.33;7.07;;;2.10;1.00;;;;;;4963294;28;20212;-78
2022/12/05 11:26:27;;;;;;;8.60;7.07;;;2.00;1.00;;;;;;4972595;28;20745;-77
2022/12/05 11:28:53;;;;;;;7.83;7.03;;;2.10;1.00;;;;;;4957620;28;20196;-77
2022/12/05 11:31:25;;;;;;;8.43;7.60;;;2.10;1.00;;;;;;4965336;28;21052;-77
2022/12/05 11:34:11;;;;;;;8.93;8.03;;;2.20;99.90;;;;;;4966584;28;20212;-78
2022/12/05 11:37:08;;;;;;;8.73;7.60;;;2.40;99.90;;;;;;4964692;28;20196;-78
2022/12/05 11:39:34;;;;;;;7.60;6.80;;;2.60;99.90;;;;;;4962489;28;20212;-78
2022/12/05 11:42:26;;;;;;;8.33;7.53;;;2.80;99.90;;;;;;4964243;28;20205;-77
2022/12/05 11:45:20;;;;;;;7.60;6.90;;;2.70;99.90;;;;;;4966363;28;20263;-78
2022/12/05 11:47:49;;;;;;;7.30;6.60;;;2.70;99.90;;;;;;4964059;28;20251;-78
2022/12/05 11:50:27;;;;;;;5.80;5.30;;;2.60;99.90;;;;;;4966800;28;20217;-78
2022/12/05 11:53:05;;;;;;;4.80;4.40;;;2.50;99.90;;;;;;4964522;28;20216;-77
2022/12/05 11:55:31;;;;;;;5.00;4.60;;;2.40;99.90;;;;;;4963392;28;20223;-77
2022/12/05 11:58:09;;;;;;;4.67;4.27;;;2.30;99.90;;;;;;4967763;28;20260;-77
2022/12/05 12:00:43;;;;;;;5.43;4.93;;;2.40;99.90;;;;;;4961238;28;20275;-78
2022/12/05 12:07:24;;;;;;;8.50;7.60;;;2.50;99.90;;;;;;4977570;28;20164;-78
2022/12/05 12:09:53;;;;;;;8.17;7.37;;;2.50;99.90;;;;;;4964781;28;20315;-78
2022/12/05 12:12:31;;;;;;;8.60;7.70;;;2.50;99.90;;;;;;4967261;28;20212;-79
2022/12/05 12:15:32;;;;;;;8.33;7.10;;;2.60;99.90;;;;;;4965591;28;20212;-78
2022/12/05 12:18:08;;;;;;;6.30;5.70;;;2.60;99.90;;;;;;4970527;28;20200;-77
2022/12/05 12:20:55;;;;;;;6.50;5.90;;;2.60;99.90;;;;;;4962669;28;20188;-78
2022/12/05 12:23:22;;;;;;;5.13;4.63;;;2.70;99.90;;;;;;4966372;28;20304;-78
2022/12/05 12:26:26;;;;;;;5.07;4.57;;;2.80;99.90;;;;;;4968677;28;20225;-79
2022/12/05 12:29:18;;;;;;;4.60;4.20;;;2.50;99.90;;;;;;4963858;28;20192;-77
2022/12/05 12:32:01;;;;;;;6.87;5.67;;;2.60;99.90;;;;;;4967267;28;21192;-81
2022/12/05 12:34:48;;;;;;;6.13;5.17;;;2.50;99.90;;;;;;4964439;28;20217;-79
2022/12/05 12:37:37;;;;;;;4.87;4.43;;;2.40;99.90;;;;;;4967624;28;20193;-78
2022/12/05 12:40:29;;;;;;;6.00;5.40;;;2.30;99.90;;;;;;4966492;28;20185;-78
2022/12/05 12:43:10;;;;;;;5.90;5.30;;;2.30;99.90;;;;;;4963892;28;20209;-78
2022/12/05 12:46:11;;;;;;;5.67;4.97;;;2.20;99.90;;;;;;4963663;28;20283;-78
2022/12/05 12:48:43;;;;;;;5.27;4.77;;;2.00;99.90;;;;;;4966424;28;20404;-79
2022/12/05 12:51:12;;;;;;;5.60;5.10;;;1.90;99.90;;;;;;4965834;28;20185;-79
2022/12/05 12:53:55;;;;;;;5.23;4.73;;;2.00;99.90;;;;;;4970042;28;20496;-79
2022/12/05 12:56:48;;;;;;;5.60;5.10;;;2.10;99.90;;;;;;4970379;28;20189;-79
2022/12/05 12:59:36;;;;;;;5.97;5.13;;;2.10;99.90;;;;;;4965729;28;20911;-79
2022/12/05 13:02:11;;;;;;;7.93;6.23;;;2.10;99.90;;;;;;4966234;28;20185;-79
2022/12/05 13:04:53;;;;;;;31.07;8.40;;;2.20;1.00;;;;;;4966801;28;20212;-78
2022/12/05 13:07:34;;;;;;;12.10;8.97;;;2.10;1.00;;;;;;4965484;28;20223;-78
2022/12/05 13:10:02;;;;;;;10.03;7.57;;;2.30;1.00;;;;;;4967473;28;20671;-78
2022/12/05 13:12:34;;;;;;;6.23;5.63;;;2.80;1.00;;;;;;4964790;28;20221;-78
2022/12/05 13:15:06;;;;;;;6.03;5.43;;;2.50;1.00;;;;;;4967335;28;20315;-78
2022/12/05 13:17:32;;;;;;;7.33;5.63;;;2.50;99.90;;;;;;4967747;28;20197;-79
2022/12/05 13:19:59;;;;;;;6.97;5.40;;;2.50;99.90;;;;;;4965729;28;20185;-79
2022/12/05 13:22:27;;;;;;;7.60;6.57;;;2.50;99.90;;;;;;4965832;28;20233;-78
2022/12/05 13:24:53;;;;;;;12.87;10.30;;;2.50;99.90;;;;;;4965357;28;20224;-78
2022/12/05 13:27:22;;;;;;;12.57;10.00;;;2.50;99.90;;;;;;4968143;28;20721;-78